Norrland — C4KF2 — position and weather

sailwx.info

Track history (hours):
 
Tides and Currents Weather Stations Pressure Air Temp Water Temp Dewpoint Dewpoint Depression Visibility Wind Speed Wind Dir Waves Ship Positions

Norrland

Last reported at 2016-Dec-01 23:31 UTC. Time now 2016-Dec-07 16:24 UTC.
Position N 55°37' E 015°25'.

Length 118 m; draft 4.6 m.

Type: Cargo ship. MMSI: 212521000.

Date/timePositionNaut miles runAvg speedWind from/ knotsBaromVisibWave heightAir tempDewpointWater temp
2016-Dec-01 23:31N 55°37' E 015°25'10 9.9
2016-Dec-01 22:33N 55°33' E 015°10'1010.2
2016-Dec-01 21:34N 55°28' E 014°54'1111.0
2016-Dec-01 20:33N 55°22' E 014°38'1111.0
2016-Dec-01 19:34N 55°13' E 014°26'1211.6
2016-Dec-01 18:34N 55°04' E 014°13'1211.6
2016-Dec-01 17:33N 54°59' E 013°55'1212.2
2016-Dec-01 16:33N 54°55' E 013°35'2412.2
2016-Dec-01 14:34N 54°46' E 012°55'1212.4
2016-Dec-01 13:34N 54°41' E 012°36'1612.0
2016-Dec-01 12:12N 54°30' E 012°16'811.5
2016-Dec-01 11:29N 54°24' E 012°05'1213.0
2016-Dec-01 10:33N 54°25' E 011°44'1312.9
2016-Dec-01 09:33N 54°30' E 011°24'1313.3
2016-Dec-01 08:34N 54°35' E 011°02'1313.0
2016-Dec-01 07:34N 54°33' E 010°40'1211.9
2016-Dec-01 06:34N 54°30' E 010°20'1010.1
2016-Dec-01 05:34N 54°22' E 010°10'3 2.9
2016-Dec-01 04:33N 54°22' E 010°04'7 7.2
2016-Dec-01 03:33N 54°22' E 009°52'7 7.3
2016-Dec-01 02:34N 54°18' E 009°42'7 7.2
2016-Dec-01 01:32N 54°12' E 009°34'13 5.8
2016-Nov-30 23:16N 54°02' E 009°18'5 7.5
2016-Nov-30 22:34N 53°58' E 009°15'5 5.3
2016-Nov-30 21:34N 53°54' E 009°09'2 2.1
2016-Nov-30 20:34N 53°53' E 009°05'9 9.3
2016-Nov-30 19:33N 53°50' E 008°50'8 8.1
2016-Nov-30 18:33N 53°56' E 008°40'10 9.9
2016-Nov-30 17:33N 53°59' E 008°24'1111.2
2016-Nov-30 16:33N 53°59' E 008°05'1111.3
2016-Nov-30 15:34N 53°56' E 007°46'5911.8
2016-Nov-30 10:33N 53°42' E 006°09'1313.4
2016-Nov-30 09:33N 53°38' E 005°48'1413.8
2016-Nov-30 08:33N 53°33' E 005°26'1414.0
2016-Nov-30 07:33N 53°29' E 005°04'4512.9
2016-Nov-30 04:05N 52°54' E 004°17'713.6
2016-Nov-30 03:34N 52°48' E 004°10'1413.9
2016-Nov-30 02:33N 52°36' E 003°59'1413.9
2016-Nov-30 01:33N 52°22' E 003°52'1313.4
2016-Nov-30 00:33N 52°09' E 003°54'1010.1
2016-Nov-29 23:33N 52°00' E 004°02'1212.0
2016-Nov-29 22:33N 51°54' E 004°18'4 3.9
2016-Nov-29 21:33N 51°53' E 004°24'0 0.0
2016-Nov-29 20:33N 51°53' E 004°24'0 0.0
2016-Nov-29 19:33N 51°53' E 004°24'0 0.0
2016-Nov-29 18:33N 51°53' E 004°24'0 0.0
2016-Nov-29 17:33N 51°53' E 004°24'0 0.0
2016-Nov-29 16:33N 51°53' E 004°24'0 0.0
2016-Nov-29 15:33N 51°53' E 004°24'0 0.0
2016-Nov-29 14:33N 51°53' E 004°24'0 0.0
2016-Nov-29 13:33N 51°53' E 004°24'0 0.0
2016-Nov-29 12:33N 51°53' E 004°24'0 0.0
2016-Nov-29 11:33N 51°53' E 004°24'0 0.0
2016-Nov-29 10:33N 51°53' E 004°24'0 0.0
2016-Nov-29 09:33N 51°53' E 004°24'0 0.0
2016-Nov-29 08:33N 51°53' E 004°24'0 0.0
2016-Nov-29 07:33N 51°53' E 004°24'0 0.0
2016-Nov-29 06:30N 51°53' E 004°24'0 0.0
2016-Nov-29 05:33N 51°53' E 004°24'0 0.0
2016-Nov-29 04:33N 51°53' E 004°24'0 0.0
2016-Nov-29 03:33N 51°53' E 004°24'0 0.0
2016-Nov-29 02:33N 51°53' E 004°24'0 0.0
2016-Nov-29 01:33N 51°53' E 004°24'0 0.0
2016-Nov-29 00:33N 51°53' E 004°24'0 0.1
2016-Nov-28 23:33N 51°53' E 004°24'0 0.1
2016-Nov-28 22:33N 51°53' E 004°24'0 0.0
2016-Nov-28 21:33N 51°53' E 004°24'0 0.0
2016-Nov-28 20:33N 51°53' E 004°24'0 0.0
2016-Nov-28 19:33N 51°53' E 004°24'0 0.0
2016-Nov-28 18:33N 51°53' E 004°24'0 0.0
2016-Nov-28 17:33N 51°53' E 004°24'0 0.0
2016-Nov-28 16:33N 51°53' E 004°24'0 0.0
2016-Nov-28 15:33N 51°53' E 004°24'0 0.0
2016-Nov-28 14:33N 51°53' E 004°24'0 0.0
2016-Nov-28 13:33N 51°53' E 004°24'0 0.0
2016-Nov-28 12:33N 51°53' E 004°24'0 0.0
2016-Nov-28 11:33N 51°53' E 004°24'0 0.0
2016-Nov-28 10:33N 51°53' E 004°24'0 0.0
2016-Nov-28 09:33N 51°53' E 004°24'0 0.0
2016-Nov-28 08:33N 51°53' E 004°24'0 0.0
2016-Nov-28 07:33N 51°53' E 004°24'0 0.0
2016-Nov-28 06:33N 51°53' E 004°24'0 0.0
2016-Nov-28 05:33N 51°53' E 004°24'0 0.0
2016-Nov-28 04:33N 51°53' E 004°24'0 0.0
2016-Nov-28 03:33N 51°53' E 004°24'0 0.0
2016-Nov-28 02:33N 51°53' E 004°24'0 0.0
2016-Nov-28 01:33N 51°53' E 004°24'1 0.5
2016-Nov-28 00:33N 51°53' E 004°24'10 9.6
2016-Nov-27 23:33N 51°57' E 004°10'10 9.7
2016-Nov-27 22:33N 52°01' E 003°55'9 9.3
2016-Nov-27 21:33N 52°08' E 003°46'1312.4
2016-Nov-27 20:32N 52°21' E 003°48'1312.8
2016-Nov-27 19:32N 52°33' E 003°52'1312.9
2016-Nov-27 18:29N 52°46' E 003°56'6710.7
2016-Nov-27 12:15N 53°37' E 005°10'912.6
2016-Nov-27 11:33N 53°40' E 005°25'1212.1
2016-Nov-27 10:33N 53°44' E 005°44'1211.5
2016-Nov-27 09:32N 53°48' E 006°03'7210.1
2016-Nov-27 02:27N 54°01' E 008°02'1010.8
2016-Nov-27 01:33N 54°00' E 008°19'1212.1
2016-Nov-27 00:33N 53°57' E 008°39'9 9.4
2016-Nov-26 23:34N 53°50' E 008°50'9 9.5
2016-Nov-26 22:33N 53°53' E 009°06'2 2.2
2016-Nov-26 21:33N 53°54' E 009°09'2 1.9
2016-Nov-26 20:33N 53°55' E 009°11'8 7.6
2016-Nov-26 19:33N 54°01' E 009°18'19 5.5
2016-Nov-26 16:10N 54°16' E 009°38'4 6.8
2016-Nov-26 15:33N 54°19' E 009°43'7 7.2
2016-Nov-26 14:33N 54°21' E 009°55'5 5.3
2016-Nov-26 13:33N 54°22' E 010°04'3 3.0
2016-Nov-26 12:33N 54°22' E 010°09'4 4.4
2016-Nov-26 11:33N 54°26' E 010°13'9 9.3
2016-Nov-26 10:33N 54°32' E 010°25'1111.0
2016-Nov-26 09:33N 54°35' E 010°43'1110.5
2016-Nov-26 08:33N 54°36' E 011°01'10 9.9
2016-Nov-26 07:33N 54°34' E 011°18'10 9.8
2016-Nov-26 06:33N 54°30' E 011°33'10 9.8
2016-Nov-26 05:33N 54°26' E 011°49'10 9.7
2016-Nov-26 04:33N 54°27' E 012°06'9 9.4
2016-Nov-26 03:33N 54°35' E 012°14'10 9.8
2016-Nov-26 02:33N 54°41' E 012°27'1010.2
2016-Nov-26 01:33N 54°47' E 012°42'1010.4
2016-Nov-26 00:33N 54°51' E 012°59'1110.6
2016-Nov-25 23:30N 54°55' E 013°17'1110.2
2016-Nov-25 22:25N 54°59' E 013°34'910.4
2016-Nov-25 21:33N 55°02' E 013°49'10 9.9
2016-Nov-25 20:32N 55°06' E 014°05'1010.3
2016-Nov-25 19:33N 55°14' E 014°16'1110.6
2016-Nov-25 18:33N 55°22' E 014°28'1010.4
2016-Nov-25 17:33N 55°29' E 014°42'1010.3
2016-Nov-25 16:33N 55°34' E 014°58'1010.4
2016-Nov-25 15:33N 55°39' E 015°14'2310.7
2016-Nov-25 13:23N 55°50' E 015°50'2210.6
2016-Nov-25 11:20N 56°02' E 016°23'  
Track history (hours):
 
Tides and Currents Weather Stations Pressure Air Temp Water Temp Dewpoint Dewpoint Depression Visibility Wind Speed Wind Dir Waves Ship Positions

Norrland

Last reported at 2016-Dec-01 23:31 UTC. Time now 2016-Dec-07 16:24 UTC.
Position N 55°37' E 015°25'.

Length 118 m; draft 4.6 m.

Type: Cargo ship. MMSI: 212521000.

Date/timePositionNaut miles runAvg speedWind from/ knotsBaromVisibWave heightAir tempDewpointWater temp
2016-Dec-01 23:31N 55°37' E 015°25'10 9.9
2016-Dec-01 22:33N 55°33' E 015°10'1010.2
2016-Dec-01 21:34N 55°28' E 014°54'1111.0
2016-Dec-01 20:33N 55°22' E 014°38'1111.0
2016-Dec-01 19:34N 55°13' E 014°26'1211.6
2016-Dec-01 18:34N 55°04' E 014°13'1211.6
2016-Dec-01 17:33N 54°59' E 013°55'1212.2
2016-Dec-01 16:33N 54°55' E 013°35'2412.2
2016-Dec-01 14:34N 54°46' E 012°55'1212.4
2016-Dec-01 13:34N 54°41' E 012°36'1612.0
2016-Dec-01 12:12N 54°30' E 012°16'811.5
2016-Dec-01 11:29N 54°24' E 012°05'1213.0
2016-Dec-01 10:33N 54°25' E 011°44'1312.9
2016-Dec-01 09:33N 54°30' E 011°24'1313.3
2016-Dec-01 08:34N 54°35' E 011°02'1313.0
2016-Dec-01 07:34N 54°33' E 010°40'1211.9
2016-Dec-01 06:34N 54°30' E 010°20'1010.1
2016-Dec-01 05:34N 54°22' E 010°10'3 2.9
2016-Dec-01 04:33N 54°22' E 010°04'7 7.2
2016-Dec-01 03:33N 54°22' E 009°52'7 7.3
2016-Dec-01 02:34N 54°18' E 009°42'7 7.2
2016-Dec-01 01:32N 54°12' E 009°34'13 5.8
2016-Nov-30 23:16N 54°02' E 009°18'5 7.5
2016-Nov-30 22:34N 53°58' E 009°15'5 5.3
2016-Nov-30 21:34N 53°54' E 009°09'2 2.1
2016-Nov-30 20:34N 53°53' E 009°05'9 9.3
2016-Nov-30 19:33N 53°50' E 008°50'8 8.1
2016-Nov-30 18:33N 53°56' E 008°40'10 9.9
2016-Nov-30 17:33N 53°59' E 008°24'1111.2
2016-Nov-30 16:33N 53°59' E 008°05'1111.3
2016-Nov-30 15:34N 53°56' E 007°46'5911.8
2016-Nov-30 10:33N 53°42' E 006°09'1313.4
2016-Nov-30 09:33N 53°38' E 005°48'1413.8
2016-Nov-30 08:33N 53°33' E 005°26'1414.0
2016-Nov-30 07:33N 53°29' E 005°04'4512.9
2016-Nov-30 04:05N 52°54' E 004°17'713.6
2016-Nov-30 03:34N 52°48' E 004°10'1413.9
2016-Nov-30 02:33N 52°36' E 003°59'1413.9
2016-Nov-30 01:33N 52°22' E 003°52'1313.4
2016-Nov-30 00:33N 52°09' E 003°54'1010.1
2016-Nov-29 23:33N 52°00' E 004°02'1212.0
2016-Nov-29 22:33N 51°54' E 004°18'4 3.9
2016-Nov-29 21:33N 51°53' E 004°24'0 0.0
2016-Nov-29 20:33N 51°53' E 004°24'0 0.0
2016-Nov-29 19:33N 51°53' E 004°24'0 0.0
2016-Nov-29 18:33N 51°53' E 004°24'0 0.0
2016-Nov-29 17:33N 51°53' E 004°24'0 0.0
2016-Nov-29 16:33N 51°53' E 004°24'0 0.0
2016-Nov-29 15:33N 51°53' E 004°24'0 0.0
2016-Nov-29 14:33N 51°53' E 004°24'0 0.0
2016-Nov-29 13:33N 51°53' E 004°24'0 0.0
2016-Nov-29 12:33N 51°53' E 004°24'0 0.0
2016-Nov-29 11:33N 51°53' E 004°24'0 0.0
2016-Nov-29 10:33N 51°53' E 004°24'0 0.0
2016-Nov-29 09:33N 51°53' E 004°24'0 0.0
2016-Nov-29 08:33N 51°53' E 004°24'0 0.0
2016-Nov-29 07:33N 51°53' E 004°24'0 0.0
2016-Nov-29 06:30N 51°53' E 004°24'0 0.0
2016-Nov-29 05:33N 51°53' E 004°24'0 0.0
2016-Nov-29 04:33N 51°53' E 004°24'0 0.0
2016-Nov-29 03:33N 51°53' E 004°24'0 0.0
2016-Nov-29 02:33N 51°53' E 004°24'0 0.0
2016-Nov-29 01:33N 51°53' E 004°24'0 0.0
2016-Nov-29 00:33N 51°53' E 004°24'0 0.1
2016-Nov-28 23:33N 51°53' E 004°24'0 0.1
2016-Nov-28 22:33N 51°53' E 004°24'0 0.0
2016-Nov-28 21:33N 51°53' E 004°24'0 0.0
2016-Nov-28 20:33N 51°53' E 004°24'0 0.0
2016-Nov-28 19:33N 51°53' E 004°24'0 0.0
2016-Nov-28 18:33N 51°53' E 004°24'0 0.0
2016-Nov-28 17:33N 51°53' E 004°24'0 0.0
2016-Nov-28 16:33N 51°53' E 004°24'0 0.0
2016-Nov-28 15:33N 51°53' E 004°24'0 0.0
2016-Nov-28 14:33N 51°53' E 004°24'0 0.0
2016-Nov-28 13:33N 51°53' E 004°24'0 0.0
2016-Nov-28 12:33N 51°53' E 004°24'0 0.0
2016-Nov-28 11:33N 51°53' E 004°24'0 0.0
2016-Nov-28 10:33N 51°53' E 004°24'0 0.0
2016-Nov-28 09:33N 51°53' E 004°24'0 0.0
2016-Nov-28 08:33N 51°53' E 004°24'0 0.0
2016-Nov-28 07:33N 51°53' E 004°24'0 0.0
2016-Nov-28 06:33N 51°53' E 004°24'0 0.0
2016-Nov-28 05:33N 51°53' E 004°24'0 0.0
2016-Nov-28 04:33N 51°53' E 004°24'0 0.0
2016-Nov-28 03:33N 51°53' E 004°24'0 0.0
2016-Nov-28 02:33N 51°53' E 004°24'0 0.0
2016-Nov-28 01:33N 51°53' E 004°24'1 0.5
2016-Nov-28 00:33N 51°53' E 004°24'10 9.6
2016-Nov-27 23:33N 51°57' E 004°10'10 9.7
2016-Nov-27 22:33N 52°01' E 003°55'9 9.3
2016-Nov-27 21:33N 52°08' E 003°46'1312.4
2016-Nov-27 20:32N 52°21' E 003°48'1312.8
2016-Nov-27 19:32N 52°33' E 003°52'1312.9
2016-Nov-27 18:29N 52°46' E 003°56'6710.7
2016-Nov-27 12:15N 53°37' E 005°10'912.6
2016-Nov-27 11:33N 53°40' E 005°25'1212.1
2016-Nov-27 10:33N 53°44' E 005°44'1211.5
2016-Nov-27 09:32N 53°48' E 006°03'7210.1
2016-Nov-27 02:27N 54°01' E 008°02'1010.8
2016-Nov-27 01:33N 54°00' E 008°19'1212.1
2016-Nov-27 00:33N 53°57' E 008°39'9 9.4
2016-Nov-26 23:34N 53°50' E 008°50'9 9.5
2016-Nov-26 22:33N 53°53' E 009°06'2 2.2
2016-Nov-26 21:33N 53°54' E 009°09'2 1.9
2016-Nov-26 20:33N 53°55' E 009°11'8 7.6
2016-Nov-26 19:33N 54°01' E 009°18'19 5.5
2016-Nov-26 16:10N 54°16' E 009°38'4 6.8
2016-Nov-26 15:33N 54°19' E 009°43'7 7.2
2016-Nov-26 14:33N 54°21' E 009°55'5 5.3
2016-Nov-26 13:33N 54°22' E 010°04'3 3.0
2016-Nov-26 12:33N 54°22' E 010°09'4 4.4
2016-Nov-26 11:33N 54°26' E 010°13'9 9.3
2016-Nov-26 10:33N 54°32' E 010°25'1111.0
2016-Nov-26 09:33N 54°35' E 010°43'1110.5
2016-Nov-26 08:33N 54°36' E 011°01'10 9.9
2016-Nov-26 07:33N 54°34' E 011°18'10 9.8
2016-Nov-26 06:33N 54°30' E 011°33'10 9.8
2016-Nov-26 05:33N 54°26' E 011°49'10 9.7
2016-Nov-26 04:33N 54°27' E 012°06'9 9.4
2016-Nov-26 03:33N 54°35' E 012°14'10 9.8
2016-Nov-26 02:33N 54°41' E 012°27'1010.2
2016-Nov-26 01:33N 54°47' E 012°42'1010.4
2016-Nov-26 00:33N 54°51' E 012°59'1110.6
2016-Nov-25 23:30N 54°55' E 013°17'1110.2
2016-Nov-25 22:25N 54°59' E 013°34'910.4
2016-Nov-25 21:33N 55°02' E 013°49'10 9.9
2016-Nov-25 20:32N 55°06' E 014°05'1010.3
2016-Nov-25 19:33N 55°14' E 014°16'1110.6
2016-Nov-25 18:33N 55°22' E 014°28'1010.4
2016-Nov-25 17:33N 55°29' E 014°42'1010.3
2016-Nov-25 16:33N 55°34' E 014°58'1010.4
2016-Nov-25 15:33N 55°39' E 015°14'2310.7
2016-Nov-25 13:23N 55°50' E 015°50'2210.6
2016-Nov-25 11:20N 56°02' E 016°23'  

Dump ship's entire track history